Time;durP1;ratioP1;P1;durP2;ratioP2;P2;SDS_P1;SDS_P2;PMS_P1;PMS_P2;Temp;Humidity;BMP_temperature;BMP_pressure;BME280_temperature;BME280_humidity;BME280_pressure;Samples;Min_cycle;Max_cycle;Signal;HPM_P1;HPM_P2
2022/04/14 00:01:00;;;;;;;12.63;7.65;;;;;;;;;;4992734;28;20042;-80
2022/04/14 00:03:28;;;;;;;12.13;7.45;;;;;;;;;;4993669;28;20076;-80
2022/04/14 00:05:54;;;;;;;14.32;8.23;;;;;;;;;;4996240;28;20513;-81
2022/04/14 00:08:20;;;;;;;12.43;7.80;;;;;;;;;;4996886;28;20105;-80
2022/04/14 00:10:45;;;;;;;14.25;8.23;;;;;;;;;;4976687;28;20117;-81
2022/04/14 00:13:10;;;;;;;13.82;7.82;;;;;;;;;;4972404;28;20062;-81
2022/04/14 00:15:35;;;;;;;12.20;7.90;;;;;;;;;;4969025;28;20829;-80
2022/04/14 00:18:01;;;;;;;12.85;7.68;;;;;;;;;;4985563;28;20038;-80
2022/04/14 00:20:26;;;;;;;12.18;7.78;;;;;;;;;;4985300;28;20544;-80
2022/04/14 00:22:51;;;;;;;13.07;8.25;;;;;;;;;;4983384;28;20116;-80
2022/04/14 00:25:17;;;;;;;16.25;7.82;;;;;;;;;;4966838;28;20035;-80
2022/04/14 00:27:42;;;;;;;12.10;8.10;;;;;;;;;;4965926;28;20045;-80
2022/04/14 00:30:08;;;;;;;15.38;8.23;;;;;;;;;;4973423;28;20047;-81
2022/04/14 00:32:33;;;;;;;12.73;8.40;;;;;;;;;;4996082;28;20042;-80
2022/04/14 00:34:59;;;;;;;12.55;8.50;;;;;;;;;;4993935;28;20504;-81
2022/04/14 00:37:24;;;;;;;11.85;7.90;;;;;;;;;;4982617;28;20069;-80
2022/04/14 00:39:50;;;;;;;11.95;8.07;;;;;;;;;;4974479;28;20066;-81
2022/04/14 00:42:17;;;;;;;12.98;7.72;;;;;;;;;;4983276;28;20052;-80
2022/04/14 00:44:43;;;;;;;11.45;7.97;;;;;;;;;;4983118;28;20033;-80
2022/04/14 00:47:10;;;;;;;12.13;7.88;;;;;;;;;;4964487;28;20505;-80
2022/04/14 00:49:36;;;;;;;13.18;8.02;;;;;;;;;;4986257;28;20084;-81
2022/04/14 00:52:03;;;;;;;11.13;8.48;;;;;;;;;;4977571;28;20034;-81
2022/04/14 00:54:30;;;;;;;13.05;8.13;;;;;;;;;;4985571;28;20069;-81
2022/04/14 00:56:57;;;;;;;11.23;8.10;;;;;;;;;;4982187;28;20064;-80
2022/04/14 00:59:22;;;;;;;10.80;7.80;;;;;;;;;;4963534;28;21035;-80
2022/04/14 01:01:48;;;;;;;12.73;8.02;;;;;;;;;;4965823;28;20038;-81
2022/04/14 01:04:13;;;;;;;13.40;8.25;;;;;;;;;;4983944;28;20040;-81
2022/04/14 01:06:39;;;;;;;11.60;7.82;;;;;;;;;;4987134;28;20042;-81
2022/04/14 01:09:21;;;;;;;13.38;8.02;;;;;;;;;;5004675;28;20116;-81
2022/04/14 01:11:51;;;;;;;12.60;8.02;;;;;;;;;;4989146;28;20045;-81
2022/04/14 01:14:25;;;;;;;12.88;8.35;;;;;;;;;;4999904;28;20046;-80
2022/04/14 01:16:51;;;;;;;13.27;8.52;;;;;;;;;;4997663;28;20398;-81
2022/04/14 01:19:16;;;;;;;13.52;8.07;;;;;;;;;;4986053;28;20080;-80
2022/04/14 01:21:45;;;;;;;11.75;8.10;;;;;;;;;;4989384;28;20073;-80
2022/04/14 01:24:11;;;;;;;13.23;8.20;;;;;;;;;;4989374;28;20026;-80
2022/04/14 01:26:37;;;;;;;13.32;8.40;;;;;;;;;;4982398;28;20876;-80
2022/04/14 01:29:03;;;;;;;13.13;8.20;;;;;;;;;;4996226;28;20049;-80
2022/04/14 01:31:28;;;;;;;13.45;8.25;;;;;;;;;;4997935;28;20042;-80
2022/04/14 01:33:54;;;;;;;12.73;8.35;;;;;;;;;;4998969;28;20038;-82
2022/04/14 01:36:19;;;;;;;15.82;8.55;;;;;;;;;;4984446;28;20045;-80
2022/04/14 01:38:48;;;;;;;10.35;8.15;;;;;;;;;;4982059;28;20046;-80
2022/04/14 01:41:13;;;;;;;12.23;8.18;;;;;;;;;;4999963;28;20126;-80
2022/04/14 01:43:38;;;;;;;14.20;8.43;;;;;;;;;;4996080;28;20495;-80
2022/04/14 01:46:08;;;;;;;11.80;7.95;;;;;;;;;;4988097;28;20037;-80
2022/04/14 01:48:34;;;;;;;11.73;8.25;;;;;;;;;;4973075;28;20039;-80
2022/04/14 01:51:01;;;;;;;11.95;8.10;;;;;;;;;;4976296;28;20391;-80
2022/04/14 01:53:26;;;;;;;12.38;8.15;;;;;;;;;;4963398;28;20080;-80
2022/04/14 01:55:52;;;;;;;14.85;8.75;;;;;;;;;;4968528;28;20068;-81
2022/04/14 01:58:17;;;;;;;10.80;8.07;;;;;;;;;;5003931;28;20618;-80
2022/04/14 02:00:42;;;;;;;14.13;8.60;;;;;;;;;;4996358;28;20466;-80
2022/04/14 02:03:08;;;;;;;12.60;8.48;;;;;;;;;;4996378;28;20041;-80
2022/04/14 02:05:33;;;;;;;11.95;8.13;;;;;;;;;;4998814;28;20042;-80
2022/04/14 02:07:58;;;;;;;12.98;8.88;;;;;;;;;;4993327;28;20045;-81
2022/04/14 02:10:24;;;;;;;11.68;8.38;;;;;;;;;;4987671;28;20038;-81
2022/04/14 02:12:49;;;;;;;12.50;8.63;;;;;;;;;;4999421;28;20034;-81
2022/04/14 02:15:14;;;;;;;12.48;8.70;;;;;;;;;;4960666;28;20431;-81
2022/04/14 02:17:40;;;;;;;11.57;8.20;;;;;;;;;;4976227;28;20411;-80
2022/04/14 02:20:05;;;;;;;12.85;8.80;;;;;;;;;;4972013;28;20043;-80
2022/04/14 02:22:37;;;;;;;11.20;8.27;;;;;;;;;;4988793;28;20038;-81
2022/04/14 02:25:03;;;;;;;11.48;8.52;;;;;;;;;;4964576;28;20397;-80
2022/04/14 02:27:28;;;;;;;12.40;8.93;;;;;;;;;;4977871;28;20031;-80
2022/04/14 02:29:53;;;;;;;12.00;8.38;;;;;;;;;;4968319;28;20458;-81
2022/04/14 02:32:19;;;;;;;13.65;8.57;;;;;;;;;;4978078;28;20456;-80
2022/04/14 02:34:44;;;;;;;12.75;8.40;;;;;;;;;;4995021;28;20088;-80
2022/04/14 02:37:11;;;;;;;12.88;9.00;;;;;;;;;;4988126;28;20049;-80
2022/04/14 02:39:36;;;;;;;13.85;8.93;;;;;;;;;;4978017;28;20043;-80
2022/04/14 02:42:04;;;;;;;13.27;8.73;;;;;;;;;;4985033;28;20034;-80
2022/04/14 02:44:30;;;;;;;17.10;9.60;;;;;;;;;;5001518;28;20035;-80
2022/04/14 02:46:55;;;;;;;15.82;8.90;;;;;;;;;;4986277;28;20038;-81
2022/04/14 02:49:21;;;;;;;14.15;8.20;;;;;;;;;;4987745;28;20038;-80
2022/04/14 02:51:47;;;;;;;11.77;8.07;;;;;;;;;;4986773;28;20038;-81
2022/04/14 02:54:12;;;;;;;12.77;8.73;;;;;;;;;;4996875;28;20050;-81
2022/04/14 02:56:37;;;;;;;11.93;8.43;;;;;;;;;;4984100;28;20128;-80
2022/04/14 02:59:02;;;;;;;11.30;8.77;;;;;;;;;;4994860;28;20088;-80
2022/04/14 03:01:28;;;;;;;12.93;7.75;;;;;;;;;;4981099;28;20053;-80
2022/04/14 03:03:53;;;;;;;11.18;8.40;;;;;;;;;;4998039;28;20069;-80
2022/04/14 03:06:18;;;;;;;15.00;8.50;;;;;;;;;;4981031;28;20066;-80
2022/04/14 03:08:44;;;;;;;11.90;8.85;;;;;;;;;;4961167;28;20027;-80
2022/04/14 03:11:10;;;;;;;11.65;7.68;;;;;;;;;;4974884;28;20050;-80
2022/04/14 03:13:35;;;;;;;11.02;8.02;;;;;;;;;;4968431;28;20504;-80
2022/04/14 03:16:00;;;;;;;11.90;7.68;;;;;;;;;;4967606;28;20125;-80
2022/04/14 03:18:26;;;;;;;12.00;7.68;;;;;;;;;;4993903;28;20054;-80
2022/04/14 03:20:51;;;;;;;11.52;7.68;;;;;;;;;;4978632;28;20038;-79
2022/04/14 03:23:19;;;;;;;16.10;7.57;;;;;;;;;;4974761;28;20093;-80
2022/04/14 03:25:45;;;;;;;11.20;7.68;;;;;;;;;;4980547;28;20034;-80
2022/04/14 03:28:10;;;;;;;12.43;8.05;;;;;;;;;;4981515;28;20033;-79
2022/04/14 03:30:36;;;;;;;13.48;8.13;;;;;;;;;;4986219;28;20041;-79
2022/04/14 03:33:01;;;;;;;14.60;8.80;;;;;;;;;;4993358;28;20045;-79
2022/04/14 03:35:28;;;;;;;13.85;9.27;;;;;;;;;;4992900;28;20064;-80
2022/04/14 03:37:53;;;;;;;18.67;10.43;;;;;;;;;;4963266;28;20498;-79
2022/04/14 03:40:18;;;;;;;17.25;10.25;;;;;;;;;;4966533;28;20053;-79
2022/04/14 03:42:44;;;;;;;17.90;11.15;;;;;;;;;;4972237;28;20384;-80
2022/04/14 03:45:09;;;;;;;17.25;9.98;;;;;;;;;;4958453;28;20038;-79
2022/04/14 03:47:35;;;;;;;16.35;10.45;;;;;;;;;;4991583;28;20450;-80
2022/04/14 03:50:00;;;;;;;14.73;10.52;;;;;;;;;;4981396;28;20397;-80
2022/04/14 03:52:26;;;;;;;16.15;10.85;;;;;;;;;;4979470;28;20132;-80
2022/04/14 03:54:51;;;;;;;15.48;10.38;;;;;;;;;;4976086;28;20940;-80
2022/04/14 03:57:16;;;;;;;15.43;10.18;;;;;;;;;;4968422;28;20038;-80
2022/04/14 03:59:42;;;;;;;16.55;9.98;;;;;;;;;;4983678;28;20045;-80
2022/04/14 04:02:07;;;;;;;14.32;9.73;;;;;;;;;;4986532;28;20034;-80
2022/04/14 04:04:35;;;;;;;14.30;10.00;;;;;;;;;;4966230;28;20042;-80
2022/04/14 04:07:00;;;;;;;13.48;9.70;;;;;;;;;;4988706;28;20509;-80
2022/04/14 04:09:26;;;;;;;13.90;9.77;;;;;;;;;;4978744;28;20053;-80
2022/04/14 04:11:55;;;;;;;13.02;9.30;;;;;;;;;;4995694;28;20039;-80
2022/04/14 04:14:21;;;;;;;11.75;8.93;;;;;;;;;;4980102;28;20030;-80
2022/04/14 04:16:47;;;;;;;13.40;9.27;;;;;;;;;;4979115;28;20401;-80
2022/04/14 04:19:12;;;;;;;15.07;9.52;;;;;;;;;;4996438;28;20042;-80
2022/04/14 04:21:37;;;;;;;13.25;9.23;;;;;;;;;;4968448;28;20042;-80
2022/04/14 04:24:03;;;;;;;13.55;9.00;;;;;;;;;;4972650;28;20057;-80
2022/04/14 04:26:28;;;;;;;13.07;9.02;;;;;;;;;;4971349;28;20096;-80
2022/04/14 04:28:53;;;;;;;12.85;8.95;;;;;;;;;;4966983;28;20041;-79
2022/04/14 04:31:19;;;;;;;12.48;8.23;;;;;;;;;;4972073;28;20184;-80
2022/04/14 04:33:44;;;;;;;13.57;9.18;;;;;;;;;;4975331;28;20726;-80
2022/04/14 04:36:11;;;;;;;12.50;8.70;;;;;;;;;;4960162;28;20045;-80
2022/04/14 04:38:36;;;;;;;12.27;9.00;;;;;;;;;;4976079;28;20054;-79
2022/04/14 04:41:02;;;;;;;12.68;8.38;;;;;;;;;;4978988;28;20414;-80
2022/04/14 04:43:27;;;;;;;14.15;9.18;;;;;;;;;;4984992;28;20046;-80
2022/04/14 04:45:52;;;;;;;13.73;8.75;;;;;;;;;;4993450;28;20029;-80
2022/04/14 04:48:17;;;;;;;16.00;9.00;;;;;;;;;;4960436;28;20043;-83
2022/04/14 04:50:43;;;;;;;11.73;8.50;;;;;;;;;;4983150;28;20070;-82
2022/04/14 04:53:08;;;;;;;14.63;9.13;;;;;;;;;;4991679;28;20073;-81
2022/04/14 04:55:33;;;;;;;13.18;8.98;;;;;;;;;;4967529;28;20121;-82
2022/04/14 04:57:59;;;;;;;11.88;8.48;;;;;;;;;;4964545;28;20057;-80
2022/04/14 05:00:24;;;;;;;15.30;9.45;;;;;;;;;;4965619;28;20042;-80
2022/04/14 05:02:49;;;;;;;12.15;8.05;;;;;;;;;;4976842;28;20454;-79
2022/04/14 05:05:15;;;;;;;11.23;8.18;;;;;;;;;;4967548;28;20051;-78
2022/04/14 05:07:40;;;;;;;13.07;8.10;;;;;;;;;;4992090;28;20125;-78
2022/04/14 05:10:06;;;;;;;11.35;8.10;;;;;;;;;;4983925;28;20042;-78
2022/04/14 05:12:32;;;;;;;16.27;8.52;;;;;;;;;;4979533;28;20038;-78
2022/04/14 05:14:57;;;;;;;13.95;8.00;;;;;;;;;;4978359;28;20097;-76
2022/04/14 05:17:22;;;;;;;11.10;7.70;;;;;;;;;;4993103;28;20589;-76
2022/04/14 05:19:48;;;;;;;10.30;7.47;;;;;;;;;;4985030;28;20042;-76
2022/04/14 05:22:13;;;;;;;10.07;7.05;;;;;;;;;;4991883;28;20060;-77
2022/04/14 05:24:38;;;;;;;10.52;7.30;;;;;;;;;;4992624;28;20100;-77
2022/04/14 05:27:04;;;;;;;11.70;7.65;;;;;;;;;;4989345;28;20125;-78
2022/04/14 05:29:30;;;;;;;12.50;6.85;;;;;;;;;;4967854;28;20046;-78
2022/04/14 05:31:56;;;;;;;12.32;6.90;;;;;;;;;;4959158;28;20047;-78
2022/04/14 05:34:21;;;;;;;11.50;6.60;;;;;;;;;;4974648;28;20502;-78
2022/04/14 05:36:46;;;;;;;11.15;7.22;;;;;;;;;;4984903;28;20050;-78
2022/04/14 05:39:12;;;;;;;12.95;7.30;;;;;;;;;;4970425;28;20043;-78
2022/04/14 05:41:40;;;;;;;12.05;7.22;;;;;;;;;;4971449;28;20035;-79
2022/04/14 05:44:05;;;;;;;12.88;6.88;;;;;;;;;;4998036;28;20597;-78
2022/04/14 05:46:31;;;;;;;11.32;7.20;;;;;;;;;;4991396;28;20049;-79
2022/04/14 05:48:56;;;;;;;10.30;6.78;;;;;;;;;;4993491;28;20076;-78
2022/04/14 05:51:22;;;;;;;10.35;6.22;;;;;;;;;;4979189;28;20425;-78
2022/04/14 05:53:53;;;;;;;10.48;6.80;;;;;;;;;;4993263;28;20038;-79
2022/04/14 05:56:19;;;;;;;11.65;6.70;;;;;;;;;;4962130;28;20042;-79
2022/04/14 05:58:44;;;;;;;13.80;6.40;;;;;;;;;;4964097;28;20038;-78
2022/04/14 06:01:09;;;;;;;9.63;6.40;;;;;;;;;;4971929;28;20034;-78
2022/04/14 06:03:35;;;;;;;9.13;6.38;;;;;;;;;;4974764;28;20031;-78
2022/04/14 06:06:00;;;;;;;10.52;6.30;;;;;;;;;;4981086;28;20040;-78
2022/04/14 06:08:25;;;;;;;10.75;6.47;;;;;;;;;;4986579;28;20069;-79
2022/04/14 06:10:51;;;;;;;10.25;6.10;;;;;;;;;;4992790;28;20629;-79
2022/04/14 06:13:16;;;;;;;11.95;6.90;;;;;;;;;;4992772;28;20034;-79
2022/04/14 06:15:42;;;;;;;10.48;6.53;;;;;;;;;;4991434;28;20034;-79
2022/04/14 06:18:08;;;;;;;10.88;6.25;;;;;;;;;;5001474;28;20033;-79
2022/04/14 06:20:33;;;;;;;12.88;6.25;;;;;;;;;;4977968;28;20040;-78
2022/04/14 06:22:58;;;;;;;11.98;6.03;;;;;;;;;;4995332;28;20033;-79
2022/04/14 06:25:24;;;;;;;11.95;6.30;;;;;;;;;;4994316;28;20065;-79
2022/04/14 06:27:51;;;;;;;13.63;6.88;;;;;;;;;;5000521;28;20215;-79
2022/04/14 06:30:18;;;;;;;9.73;6.30;;;;;;;;;;4983604;28;20046;-79
2022/04/14 06:32:57;;;;;;;11.98;6.70;;;;;;;;;;4977738;28;20179;-79
2022/04/14 06:35:22;;;;;;;11.75;7.10;;;;;;;;;;4993332;28;20505;-79
2022/04/14 06:37:47;;;;;;;11.73;6.68;;;;;;;;;;4995030;28;20038;-79
2022/04/14 06:40:12;;;;;;;9.60;6.55;;;;;;;;;;4985167;28;20049;-79
2022/04/14 06:42:38;;;;;;;12.25;7.00;;;;;;;;;;4979031;28;20035;-79
2022/04/14 06:45:04;;;;;;;11.65;7.07;;;;;;;;;;4985760;28;20038;-79
2022/04/14 06:47:29;;;;;;;12.52;7.10;;;;;;;;;;4985030;28;20040;-79
2022/04/14 06:49:55;;;;;;;12.57;7.20;;;;;;;;;;4967938;28;20121;-79
2022/04/14 06:52:24;;;;;;;13.02;7.15;;;;;;;;;;4972128;28;20042;-78
2022/04/14 06:54:49;;;;;;;13.40;6.93;;;;;;;;;;4982261;28;20166;-79
2022/04/14 06:57:15;;;;;;;41.28;11.13;;;;;;;;;;4964729;28;20666;-79
2022/04/14 06:59:41;;;;;;;21.33;7.68;;;;;;;;;;4973265;28;20031;-78
2022/04/14 07:02:06;;;;;;;11.20;7.43;;;;;;;;;;4987708;28;20797;-78
2022/04/14 07:04:32;;;;;;;12.30;7.20;;;;;;;;;;4979758;28;20397;-78
2022/04/14 07:06:57;;;;;;;9.90;6.50;;;;;;;;;;4983318;28;20038;-79
2022/04/14 07:09:24;;;;;;;11.80;5.90;;;;;;;;;;4985723;28;20098;-77
2022/04/14 07:11:49;;;;;;;11.63;6.73;;;;;;;;;;4992403;28;20069;-78
2022/04/14 07:14:14;;;;;;;10.75;6.32;;;;;;;;;;4993315;28;20054;-79
2022/04/14 07:16:41;;;;;;;13.23;5.93;;;;;;;;;;4973988;28;20086;-78
2022/04/14 07:19:06;;;;;;;11.82;6.18;;;;;;;;;;4992240;28;20053;-78
2022/04/14 07:21:31;;;;;;;13.75;6.30;;;;;;;;;;4983972;28;20038;-78
2022/04/14 07:23:56;;;;;;;10.52;6.47;;;;;;;;;;4996357;28;20506;-78
2022/04/14 07:26:25;;;;;;;11.27;6.28;;;;;;;;;;4981144;28;20049;-79
2022/04/14 07:28:50;;;;;;;13.48;6.05;;;;;;;;;;4975393;28;21437;-78
2022/04/14 07:31:15;;;;;;;12.60;6.45;;;;;;;;;;4958934;28;20074;-79
2022/04/14 07:33:41;;;;;;;15.38;6.40;;;;;;;;;;4955433;28;20072;-78
2022/04/14 07:36:07;;;;;;;11.00;6.80;;;;;;;;;;4974582;28;20413;-78
2022/04/14 07:38:32;;;;;;;11.45;6.35;;;;;;;;;;4971596;28;20038;-78
2022/04/14 07:40:57;;;;;;;11.40;6.05;;;;;;;;;;4978251;28;20042;-78
2022/04/14 07:43:23;;;;;;;10.82;6.10;;;;;;;;;;4978722;28;20444;-78
2022/04/14 07:45:48;;;;;;;12.48;6.10;;;;;;;;;;4976624;28;20027;-78
2022/04/14 07:48:16;;;;;;;9.15;6.15;;;;;;;;;;4971528;28;20053;-79
2022/04/14 07:50:41;;;;;;;9.35;6.00;;;;;;;;;;4974704;28;20065;-78
2022/04/14 07:53:07;;;;;;;11.25;6.47;;;;;;;;;;4980772;28;20070;-79
2022/04/14 07:55:34;;;;;;;11.70;5.93;;;;;;;;;;4984579;28;20084;-79
2022/04/14 07:58:04;;;;;;;11.38;5.32;;;;;;;;;;4999994;28;20061;-78
2022/04/14 08:00:30;;;;;;;8.52;5.47;;;;;;;;;;4966171;28;20029;-78
2022/04/14 08:02:58;;;;;;;9.75;5.63;;;;;;;;;;5002950;28;20513;-79
2022/04/14 08:05:42;;;;;;;10.55;5.65;;;;;;;;;;4999163;28;20041;-79
2022/04/14 08:08:10;;;;;;;11.52;5.30;;;;;;;;;;4997075;28;20097;-79
2022/04/14 08:10:36;;;;;;;9.48;5.20;;;;;;;;;;4991780;28;20041;-78
2022/04/14 08:13:01;;;;;;;8.40;5.07;;;;;;;;;;4988896;28;20038;-78
2022/04/14 08:15:28;;;;;;;8.60;5.13;;;;;;;;;;4990651;28;20085;-79
2022/04/14 08:17:54;;;;;;;9.20;4.78;;;;;;;;;;4990763;28;20033;-79
2022/04/14 08:20:19;;;;;;;10.13;5.20;;;;;;;;;;4984420;28;20045;-79
2022/04/14 08:22:50;;;;;;;9.60;4.60;;;;;;;;;;4991764;28;20489;-79
2022/04/14 08:25:32;;;;;;;9.43;4.50;;;;;;;;;;4991996;28;20489;-79
2022/04/14 08:28:02;;;;;;;9.43;4.20;;;;;;;;;;4982939;28;20034;-79
2022/04/14 08:30:29;;;;;;;9.60;4.78;;;;;;;;;;4965677;28;20058;-79
2022/04/14 08:32:55;;;;;;;8.35;3.67;;;;;;;;;;4957612;28;20587;-79
2022/04/14 08:35:21;;;;;;;7.57;4.03;;;;;;;;;;4988133;28;20038;-79
2022/04/14 08:37:47;;;;;;;6.05;3.95;;;;;;;;;;4957039;28;20865;-79
2022/04/14 08:40:17;;;;;;;6.80;3.65;;;;;;;;;;4971395;28;20062;-78
2022/04/14 08:43:01;;;;;;;9.68;4.25;;;;;;;;;;4987082;28;20046;-78
2022/04/14 08:45:30;;;;;;;7.75;4.15;;;;;;;;;;4963122;28;20039;-77
2022/04/14 08:47:56;;;;;;;5.88;3.75;;;;;;;;;;4996592;28;20453;-77
2022/04/14 08:50:21;;;;;;;6.20;3.60;;;;;;;;;;4992443;28;20049;-79
2022/04/14 08:52:47;;;;;;;6.22;3.33;;;;;;;;;;4974130;28;20042;-78
2022/04/14 08:55:14;;;;;;;8.35;3.25;;;;;;;;;;4983244;28;20061;-78
2022/04/14 08:57:41;;;;;;;6.85;3.10;;;;;;;;;;4990119;28;20034;-79
2022/04/14 09:00:09;;;;;;;4.40;2.72;;;;;;;;;;4971674;28;20130;-77
2022/04/14 09:02:35;;;;;;;6.15;2.90;;;;;;;;;;4978876;28;20953;-77
2022/04/14 09:05:04;;;;;;;7.25;2.70;;;;;;;;;;4992000;28;20101;-78
2022/04/14 09:07:30;;;;;;;5.50;2.60;;;;;;;;;;4976644;28;20039;-78
2022/04/14 09:09:55;;;;;;;5.63;2.38;;;;;;;;;;4978521;28;20059;-78
2022/04/14 09:12:21;;;;;;;7.18;3.03;;;;;;;;;;4976940;28;20547;-79
2022/04/14 09:14:47;;;;;;;6.15;2.70;;;;;;;;;;4973610;28;20042;-79
2022/04/14 09:17:13;;;;;;;7.93;2.67;;;;;;;;;;4975196;28;20066;-79
2022/04/14 09:19:39;;;;;;;6.65;2.67;;;;;;;;;;4982600;28;20138;-79
2022/04/14 09:22:14;;;;;;;6.32;2.85;;;;;;;;;;4985992;28;20037;-79
2022/04/14 09:24:47;;;;;;;6.55;2.40;;;;;;;;;;4983512;28;20097;-79
2022/04/14 09:27:39;;;;;;;4.38;2.08;;;;;;;;;;4987206;28;20038;-78
2022/04/14 09:30:07;;;;;;;4.32;1.88;;;;;;;;;;4990388;28;20072;-78
2022/04/14 09:32:42;;;;;;;3.45;1.70;;;;;;;;;;5001849;28;20042;-79
2022/04/14 09:35:21;;;;;;;3.92;1.80;;;;;;;;;;4995002;28;20127;-79
2022/04/14 09:38:03;;;;;;;4.95;1.88;;;;;;;;;;4996076;28;20061;-79
2022/04/14 09:40:30;;;;;;;6.03;2.50;;;;;;;;;;4974680;28;20069;-79
2022/04/14 09:42:55;;;;;;;14.65;4.38;;;;;;;;;;4963775;28;20031;-79
2022/04/14 09:45:25;;;;;;;8.43;3.20;;;;;;;;;;4968411;28;20322;-77
2022/04/14 09:47:52;;;;;;;6.72;2.80;;;;;;;;;;4976166;28;20081;-77
2022/04/14 09:50:35;;;;;;;5.80;2.47;;;;;;;;;;4976945;28;20039;-79
2022/04/14 09:53:14;;;;;;;5.15;2.17;;;;;;;;;;4965812;28;20045;-79
2022/04/14 09:55:50;;;;;;;8.15;2.65;;;;;;;;;;4961497;28;20585;-79
2022/04/14 09:58:17;;;;;;;5.75;2.70;;;;;;;;;;4974302;28;20050;-78
2022/04/14 10:00:53;;;;;;;4.93;2.60;;;;;;;;;;4987600;28;20041;-78
2022/04/14 10:03:21;;;;;;;4.43;2.42;;;;;;;;;;4999761;28;20545;-78
2022/04/14 10:05:51;;;;;;;4.85;2.65;;;;;;;;;;5002347;28;20035;-79
2022/04/14 10:08:17;;;;;;;5.53;2.60;;;;;;;;;;5002021;28;20034;-78
2022/04/14 10:10:45;;;;;;;4.45;2.60;;;;;;;;;;4966777;28;20038;-78
2022/04/14 10:13:12;;;;;;;6.95;2.50;;;;;;;;;;4973477;28;20462;-78
2022/04/14 10:15:53;;;;;;;5.07;2.50;;;;;;;;;;4968535;28;20096;-78
2022/04/14 10:18:19;;;;;;;6.60;2.40;;;;;;;;;;4986308;28;20544;-78
2022/04/14 10:20:45;;;;;;;4.47;2.72;;;;;;;;;;4961959;28;20039;-79
2022/04/14 10:23:13;;;;;;;4.75;2.90;;;;;;;;;;4973606;28;20054;-78
2022/04/14 10:25:39;;;;;;;8.15;3.17;;;;;;;;;;4985451;28;20050;-78
2022/04/14 10:28:09;;;;;;;6.35;3.00;;;;;;;;;;4980082;28;20088;-78
2022/04/14 10:30:35;;;;;;;4.90;2.78;;;;;;;;;;4974586;28;20433;-78
2022/04/14 10:33:00;;;;;;;5.07;2.58;;;;;;;;;;4982663;28;20034;-79
2022/04/14 10:35:28;;;;;;;5.20;2.80;;;;;;;;;;4974463;28;20158;-79
2022/04/14 10:38:00;;;;;;;;;;;;;;;;;;4994401;28;20034;-79
2022/04/14 10:40:25;;;;;;;4.85;2.35;;;;;;;;;;4973665;28;19924;-79
2022/04/14 10:42:55;;;;;;;4.88;2.30;;;;;;;;;;4962905;28;20123;-80
2022/04/14 10:45:23;;;;;;;6.72;2.50;;;;;;;;;;4967215;28;20073;-77
2022/04/14 10:47:53;;;;;;;5.40;2.53;;;;;;;;;;4965564;28;20113;-78
2022/04/14 10:50:30;;;;;;;4.63;2.40;;;;;;;;;;5000269;28;20144;-79
2022/04/14 10:53:31;;;;;;;4.47;2.30;;;;;;;;;;4978905;28;20069;-78
2022/04/14 10:55:56;;;;;;;4.13;2.22;;;;;;;;;;4945901;28;20043;-78
2022/04/14 10:58:37;;;;;;;5.97;2.65;;;;;;;;;;4977585;28;20093;-78
2022/04/14 11:01:03;;;;;;;3.78;2.22;;;;;;;;;;4973555;28;20038;-78
2022/04/14 11:03:52;;;;;;;3.20;1.70;;;;;;;;;;4974516;28;20116;-79
2022/04/14 11:06:45;;;;;;;4.00;1.80;;;;;;;;;;4984527;28;20042;-79
2022/04/14 11:09:38;;;;;;;4.45;2.08;;;;;;;;;;4975852;28;20050;-79
2022/04/14 11:12:05;;;;;;;3.97;2.10;;;;;;;;;;4973636;28;20034;-78
2022/04/14 11:14:37;;;;;;;4.15;1.80;;;;;;;;;;4972463;28;20121;-78
2022/04/14 11:17:05;;;;;;;3.97;1.50;;;;;;;;;;4980534;28;20057;-79
2022/04/14 11:19:31;;;;;;;4.38;1.52;;;;;;;;;;4991541;28;20620;-77
2022/04/14 11:22:02;;;;;;;3.72;1.30;;;;;;;;;;4985149;28;20034;-78
2022/04/14 11:24:36;;;;;;;3.03;1.25;;;;;;;;;;4996817;28;20043;-79
2022/04/14 11:27:21;;;;;;;3.22;1.40;;;;;;;;;;4993600;28;20685;-79
2022/04/14 11:29:57;;;;;;;4.50;1.40;;;;;;;;;;4997656;28;20095;-78
2022/04/14 11:32:38;;;;;;;3.50;1.45;;;;;;;;;;4958767;28;20038;-78
2022/04/14 11:35:16;;;;;;;3.20;1.38;;;;;;;;;;4967036;28;20042;-78
2022/04/14 11:37:43;;;;;;;5.30;1.73;;;;;;;;;;4975935;28;20042;-79
2022/04/14 11:40:22;;;;;;;4.05;1.80;;;;;;;;;;4977636;28;20038;-77
2022/04/14 11:42:51;;;;;;;4.47;1.90;;;;;;;;;;4998957;28;20130;-79
2022/04/14 11:45:28;;;;;;;4.30;1.88;;;;;;;;;;4998643;28;20385;-78
2022/04/14 11:48:00;;;;;;;4.03;1.80;;;;;;;;;;4982753;28;20102;-78
2022/04/14 11:50:26;;;;;;;4.50;1.60;;;;;;;;;;4979786;28;20034;-79
2022/04/14 11:53:10;;;;;;;3.00;1.35;;;;;;;;;;4982463;28;20485;-78
2022/04/14 11:55:40;;;;;;;2.92;1.45;;;;;;;;;;4974137;28;20042;-78
2022/04/14 11:58:09;;;;;;;3.30;1.40;;;;;;;;;;4959394;28;20038;-79
2022/04/14 12:00:47;;;;;;;3.35;1.10;;;;;;;;;;4990344;28;20038;-78
2022/04/14 12:03:13;;;;;;;2.80;1.10;;;;;;;;;;4984183;28;20037;-78
2022/04/14 12:05:40;;;;;;;2.70;0.90;;;;;;;;;;5000863;28;20035;-78
2022/04/14 12:08:10;;;;;;;2.40;0.95;;;;;;;;;;4979726;28;20124;-78
2022/04/14 12:10:35;;;;;;;2.05;0.93;;;;;;;;;;4967902;28;20038;-78
2022/04/14 12:13:07;;;;;;;3.90;1.17;;;;;;;;;;4978623;28;20032;-78
2022/04/14 12:15:34;;;;;;;3.42;1.40;;;;;;;;;;4991186;28;20498;-79
2022/04/14 12:18:06;;;;;;;4.40;1.63;;;;;;;;;;4992998;28;20669;-77
2022/04/14 12:20:36;;;;;;;4.13;2.00;;;;;;;;;;4990102;28;20967;-78
2022/04/14 12:23:01;;;;;;;4.80;2.10;;;;;;;;;;5000867;28;20038;-77
2022/04/14 12:25:27;;;;;;;3.85;2.08;;;;;;;;;;4979648;28;20061;-78
2022/04/14 12:27:53;;;;;;;5.05;2.63;;;;;;;;;;4972270;28;20562;-78
2022/04/14 12:30:21;;;;;;;4.93;2.60;;;;;;;;;;4978577;28;20043;-78
2022/04/14 12:32:47;;;;;;;5.00;2.60;;;;;;;;;;4994830;28;20041;-77
2022/04/14 12:35:37;;;;;;;5.40;2.65;;;;;;;;;;4991365;28;20268;-78
2022/04/14 12:38:21;;;;;;;5.05;2.70;;;;;;;;;;4972184;28;20410;-78
2022/04/14 12:40:56;;;;;;;3.88;2.47;;;;;;;;;;4975652;28;20057;-78
2022/04/14 12:43:37;;;;;;;6.78;2.55;;;;;;;;;;4985833;28;20121;-79
2022/04/14 12:46:20;;;;;;;5.65;2.30;;;;;;;;;;4975744;28;20050;-78
2022/04/14 12:48:45;;;;;;;3.20;1.88;;;;;;;;;;4966556;28;20113;-78
2022/04/14 12:51:11;;;;;;;3.90;1.60;;;;;;;;;;4973101;28;20561;-78
2022/04/14 12:53:36;;;;;;;3.20;1.55;;;;;;;;;;4959013;28;20793;-78
2022/04/14 12:56:15;;;;;;;3.35;1.50;;;;;;;;;;4971106;28;20057;-78
2022/04/14 12:58:40;;;;;;;2.97;1.70;;;;;;;;;;4964704;28;20601;-78
2022/04/14 13:01:12;;;;;;;5.75;2.08;;;;;;;;;;4987708;28;20038;-78
2022/04/14 13:03:47;;;;;;;3.50;2.17;;;;;;;;;;4998941;28;20043;-78
2022/04/14 13:06:16;;;;;;;5.65;2.40;;;;;;;;;;4985477;28;20038;-78
2022/04/14 13:08:42;;;;;;;3.85;1.90;;;;;;;;;;4973675;28;20398;-78
2022/04/14 13:11:07;;;;;;;4.43;1.92;;;;;;;;;;4978230;28;20041;-78
2022/04/14 13:13:33;;;;;;;4.50;2.40;;;;;;;;;;4965050;28;20043;-78
2022/04/14 13:15:58;;;;;;;3.80;2.33;;;;;;;;;;4967641;28;20085;-78
2022/04/14 13:18:23;;;;;;;3.90;2.20;;;;;;;;;;4978681;28;20055;-77
2022/04/14 13:20:48;;;;;;;5.03;2.90;;;;;;;;;;4977944;28;20086;-77
2022/04/14 13:23:18;;;;;;;5.93;3.22;;;;;;;;;;4979790;28;20051;-78
2022/04/14 13:25:46;;;;;;;5.85;3.15;;;;;;;;;;4974154;28;20035;-77
2022/04/14 13:28:12;;;;;;;5.22;2.70;;;;;;;;;;4997635;28;20034;-78
2022/04/14 13:30:37;;;;;;;5.63;3.03;;;;;;;;;;5000640;28;20095;-78
2022/04/14 13:33:03;;;;;;;5.50;2.88;;;;;;;;;;4997909;28;20157;-78
2022/04/14 13:35:29;;;;;;;6.15;3.00;;;;;;;;;;4989648;28;20501;-77
2022/04/14 13:37:54;;;;;;;7.03;3.33;;;;;;;;;;4976210;28;20062;-78
2022/04/14 13:40:19;;;;;;;6.47;3.13;;;;;;;;;;4971967;28;20039;-78
2022/04/14 13:42:45;;;;;;;8.23;3.20;;;;;;;;;;4971174;28;20073;-78
2022/04/14 13:45:11;;;;;;;5.63;3.40;;;;;;;;;;4984979;28;20371;-78
2022/04/14 13:47:44;;;;;;;5.38;3.20;;;;;;;;;;4963998;28;20038;-78
2022/04/14 13:50:10;;;;;;;5.25;3.50;;;;;;;;;;4973601;28;20034;-78
2022/04/14 13:52:36;;;;;;;7.32;3.55;;;;;;;;;;4982302;28;20043;-78
2022/04/14 13:55:04;;;;;;;5.22;3.03;;;;;;;;;;4986948;28;20061;-78
2022/04/14 13:57:29;;;;;;;5.70;3.10;;;;;;;;;;4964284;28;20066;-78
2022/04/14 13:59:54;;;;;;;7.50;4.00;;;;;;;;;;4978719;28;20085;-78
2022/04/14 14:02:20;;;;;;;7.63;4.15;;;;;;;;;;4986904;28;20038;-78
2022/04/14 14:04:45;;;;;;;7.38;4.10;;;;;;;;;;5007814;28;20041;-79
2022/04/14 14:07:11;;;;;;;6.88;3.90;;;;;;;;;;4981147;28;20061;-78
2022/04/14 14:09:36;;;;;;;6.57;3.50;;;;;;;;;;4988553;28;20030;-79
2022/04/14 14:12:02;;;;;;;5.13;2.80;;;;;;;;;;4994501;28;20081;-79
2022/04/14 14:14:27;;;;;;;8.18;3.60;;;;;;;;;;4997708;28;20044;-78
2022/04/14 14:16:53;;;;;;;7.00;3.28;;;;;;;;;;4995825;28;20061;-79
2022/04/14 14:19:18;;;;;;;6.57;3.30;;;;;;;;;;4994061;28;20164;-79
2022/04/14 14:21:44;;;;;;;6.68;3.42;;;;;;;;;;4996156;28;20562;-78
2022/04/14 14:24:09;;;;;;;5.43;3.20;;;;;;;;;;4999739;28;20038;-78
2022/04/14 14:26:35;;;;;;;5.72;3.15;;;;;;;;;;4978317;28;20038;-79
2022/04/14 14:29:00;;;;;;;7.68;3.15;;;;;;;;;;4976472;28;20060;-79
2022/04/14 14:31:25;;;;;;;5.50;3.33;;;;;;;;;;4967575;28;20046;-79
2022/04/14 14:33:51;;;;;;;5.30;3.28;;;;;;;;;;4963220;28;20066;-78
2022/04/14 14:36:17;;;;;;;6.82;3.35;;;;;;;;;;4973107;28;20034;-79
2022/04/14 14:38:44;;;;;;;5.45;2.97;;;;;;;;;;4968522;28;20045;-79